Time;durP1;ratioP1;P1;durP2;ratioP2;P2;SDS_P1;SDS_P2;PMS_P1;PMS_P2;Temp;Humidity;BMP_temperature;BMP_pressure;BME280_temperature;BME280_humidity;BME280_pressure;Samples;Min_cycle;Max_cycle;Signal;HPM_P1;HPM_P2
2023/02/19 00:01:15;;;;;;;18.85;13.43;;;;;;;8.18;100.00;100296.00;5094469;28;20544;-74
2023/02/19 00:03:42;;;;;;;19.13;13.45;;;;;;;7.87;100.00;100229.75;5094592;28;20039;-74
2023/02/19 00:06:10;;;;;;;22.27;14.35;;;;;;;8.31;100.00;100297.56;5094631;28;20042;-74
2023/02/19 00:08:37;;;;;;;20.77;14.18;;;;;;;8.21;100.00;100301.03;5094283;28;20067;-74
2023/02/19 00:11:05;;;;;;;19.52;14.02;;;;;;;7.80;100.00;100240.00;5076287;28;20393;-74
2023/02/19 00:13:34;;;;;;;21.15;14.57;;;;;;;7.82;100.00;100239.09;5076212;28;20472;-74
2023/02/19 00:16:08;;;;;;;22.88;15.35;;;;;;;8.21;100.00;100272.34;5076128;28;20028;-74
2023/02/19 00:18:33;;;;;;;20.73;14.80;;;;;;;8.28;100.00;100282.38;5090643;28;20105;-75
2023/02/19 00:20:59;;;;;;;25.30;15.68;;;;;;;8.13;100.00;100282.59;5094045;28;20473;-74
2023/02/19 00:23:25;;;;;;;27.52;16.83;;;;;;;7.93;100.00;100238.13;5094413;28;20035;-74
2023/02/19 00:25:51;;;;;;;26.38;17.48;;;;;;;7.78;100.00;100224.00;5076252;28;20070;-74
2023/02/19 00:28:17;;;;;;;26.23;17.55;;;;;;;7.97;100.00;100276.03;5075970;28;20032;-74
2023/02/19 00:30:42;;;;;;;28.98;17.60;;;;;;;7.73;100.00;100218.13;5094171;28;20028;-74
2023/02/19 00:33:08;;;;;;;27.05;17.63;;;;;;;7.44;100.00;100178.03;5075856;28;20058;-74
2023/02/19 00:35:34;;;;;;;28.13;18.08;;;;;;;7.89;100.00;100262.63;5075447;28;20108;-74
2023/02/19 00:38:00;;;;;;;25.75;17.90;;;;;;;7.85;100.00;100253.41;5075740;28;20028;-74
2023/02/19 00:40:26;;;;;;;27.45;19.05;;;;;;;7.87;100.00;100256.75;5094067;28;20066;-74
2023/02/19 00:42:52;;;;;;;28.67;18.90;;;;;;;7.62;100.00;100218.28;5076002;28;20024;-75
2023/02/19 00:45:17;;;;;;;25.15;18.35;;;;;;;7.81;100.00;100260.22;5093315;28;20426;-75
2023/02/19 00:47:43;;;;;;;29.35;18.80;;;;;;;7.80;100.00;100245.88;5075899;28;20200;-75
2023/02/19 00:50:08;;;;;;;28.88;19.58;;;;;;;7.52;100.00;100198.16;5075564;28;20024;-75
2023/02/19 00:52:34;;;;;;;26.30;18.60;;;;;;;7.86;100.00;100252.56;5093570;28;20036;-73
2023/02/19 00:54:59;;;;;;;26.13;18.08;;;;;;;7.54;100.00;100191.41;5093510;28;20054;-74
2023/02/19 00:57:25;;;;;;;26.52;17.98;;;;;;;7.55;100.00;100177.88;5060452;28;20036;-74
2023/02/19 00:59:50;;;;;;;27.63;19.88;;;;;;;7.62;100.00;100233.47;5072706;28;20049;-74
2023/02/19 01:02:16;;;;;;;25.35;18.10;;;;;;;7.65;100.00;100228.34;5073073;28;20093;-74
2023/02/19 01:04:41;;;;;;;29.27;21.23;;;;;;;7.65;100.00;100224.97;5072617;28;20064;-74
2023/02/19 01:07:07;;;;;;;27.88;18.73;;;;;;;7.07;100.00;100130.44;5055439;28;20822;-74
2023/02/19 01:09:32;;;;;;;29.77;18.38;;;;;;;6.99;100.00;100135.59;5055970;28;20024;-74
2023/02/19 01:11:57;;;;;;;37.22;22.77;;;;;;;7.38;100.00;100225.31;5073259;28;20020;-76
2023/02/19 01:14:23;;;;;;;30.02;20.27;;;;;;;7.35;100.00;100215.25;5055245;28;20098;-74
2023/02/19 01:16:48;;;;;;;33.58;20.60;;;;;;;7.39;100.00;100234.59;5055298;28;20032;-76
2023/02/19 01:19:14;;;;;;;32.55;20.88;;;;;;;7.03;100.00;100158.28;5072874;28;20035;-74
2023/02/19 01:21:39;;;;;;;28.33;19.42;;;;;;;7.51;100.00;100224.31;5055130;28;20028;-74
2023/02/19 01:24:05;;;;;;;29.77;19.27;;;;;;;7.49;100.00;100186.38;5072659;28;20025;-74
2023/02/19 01:26:32;;;;;;;27.60;18.58;;;;;;;7.08;100.00;100172.53;5073040;28;20028;-73
2023/02/19 01:29:01;;;;;;;27.95;18.55;;;;;;;6.95;100.00;100119.59;5054764;28;20128;-74
2023/02/19 01:31:27;;;;;;;29.08;19.75;;;;;;;7.30;100.00;100161.34;5071175;28;20040;-73
2023/02/19 01:33:56;;;;;;;32.22;19.75;;;;;;;7.47;100.00;100197.38;5072208;28;20043;-75
2023/02/19 01:36:22;;;;;;;29.80;19.85;;;;;;;7.50;100.00;100194.81;5072839;28;20410;-74
2023/02/19 01:38:48;;;;;;;29.10;18.38;;;;;;;7.40;100.00;100188.19;5072850;28;20051;-74
2023/02/19 01:41:17;;;;;;;28.65;18.60;;;;;;;7.33;100.00;100200.06;5072382;28;20394;-73
2023/02/19 01:44:07;;;;;;;26.15;18.35;;;;;;;7.38;100.00;100202.56;5072894;28;20035;-74
2023/02/19 01:46:35;;;;;;;28.08;18.48;;;;;;;6.70;100.00;100108.09;5035782;28;20052;-73
2023/02/19 01:49:33;;;;;;;28.75;18.80;;;;;;;7.54;100.00;100196.47;5070956;28;20123;-73
2023/02/19 01:52:04;;;;;;;26.13;18.25;;;;;;;7.13;100.00;100145.56;5043710;28;20040;-75
2023/02/19 01:54:34;;;;;;;23.98;17.13;;;;;;;7.50;100.00;100198.19;5055253;28;20033;-74
2023/02/19 01:57:03;;;;;;;26.15;16.98;;;;;;;7.43;100.00;100191.53;5054303;28;20024;-74
2023/02/19 01:59:31;;;;;;;26.25;17.65;;;;;;;6.68;100.00;100106.44;5072201;28;20041;-74
2023/02/19 02:01:57;;;;;;;27.90;19.40;;;;;;;7.24;100.00;100199.34;5070727;28;20033;-74
2023/02/19 02:04:22;;;;;;;30.80;19.50;;;;;;;7.36;100.00;100184.88;5071309;28;20032;-74
2023/02/19 02:06:53;;;;;;;35.33;21.00;;;;;;;7.31;100.00;100191.66;5072057;28;20506;-74
2023/02/19 02:12:09;;;;;;;35.22;22.05;;;;;;;7.46;100.00;100185.59;5071330;28;20083;-74
2023/02/19 02:14:38;;;;;;;33.15;22.52;;;;;;;7.20;100.00;100192.63;5072119;28;20071;-74
2023/02/19 02:17:28;;;;;;;33.15;22.30;;;;;;;7.41;100.00;100202.50;5053638;28;20061;-74
2023/02/19 02:20:18;;;;;;;35.83;22.48;;;;;;;7.42;100.00;100204.19;5071963;28;20086;-75
2023/02/19 02:22:46;;;;;;;34.15;21.98;;;;;;;6.83;100.00;100213.22;5054322;28;20105;-73
2023/02/19 02:25:36;;;;;;;33.53;22.33;;;;;;;7.24;100.00;100205.25;5071915;28;20119;-74
2023/02/19 02:28:14;;;;;;;39.38;23.88;;;;;;;7.27;100.00;100189.22;5053780;28;20024;-73
2023/02/19 02:30:47;;;;;;;38.60;24.27;;;;;;;6.91;100.00;100195.50;5072105;28;20419;-73
2023/02/19 02:33:16;;;;;;;35.53;23.65;;;;;;;6.60;100.00;100133.44;5071045;28;20032;-73
2023/02/19 02:35:56;;;;;;;37.10;24.52;;;;;;;6.79;100.00;100125.69;5071680;28;20032;-73
2023/02/19 02:38:27;;;;;;;39.33;24.67;;;;;;;7.40;100.00;100203.38;5071357;28;20056;-74
2023/02/19 02:40:54;;;;;;;38.40;24.42;;;;;;;7.08;100.00;100193.63;5053451;28;20033;-73
2023/02/19 02:43:20;;;;;;;37.10;24.90;;;;;;;6.81;100.00;100212.41;5071386;28;20028;-74
2023/02/19 02:45:45;;;;;;;39.53;26.27;;;;;;;6.74;100.00;100156.91;5071104;28;20036;-73
2023/02/19 02:48:22;;;;;;;41.08;25.42;;;;;;;6.67;100.00;100221.81;5071411;28;20036;-73
2023/02/19 02:50:59;;;;;;;42.13;27.42;;;;;;;6.76;100.00;100208.25;5071192;28;20021;-74
2023/02/19 02:56:33;;;;;;;40.53;26.65;;;;;;;6.34;100.00;100168.22;5071586;28;20626;-74
2023/02/19 02:59:01;;;;;;;43.40;25.48;;;;;;;6.47;100.00;100163.06;5071055;28;20032;-74
2023/02/19 03:07:40;;;;;;;37.92;24.20;;;;;;;6.93;100.00;100219.88;5071352;28;20067;-75
2023/02/19 03:10:11;;;;;;;33.70;23.08;;;;;;;6.53;100.00;100177.31;5053933;28;20033;-74
2023/02/19 03:21:15;;;;;;;43.55;25.90;;;;;;;6.82;100.00;100223.34;5071606;28;20051;-74
2023/02/19 03:26:28;;;;;;;47.83;28.98;;;;;;;6.67;100.00;100236.13;5075431;28;20093;-76
2023/02/19 03:31:43;;;;;;;43.65;29.02;;;;;;;6.32;100.00;100172.44;5075365;28;20043;-74
2023/02/19 03:34:14;;;;;;;41.22;26.77;;;;;;;6.42;100.00;100199.28;5057470;28;20032;-75
2023/02/19 03:36:46;;;;;;;43.08;29.65;;;;;;;6.36;100.00;100161.47;5057034;28;20029;-76
2023/02/19 03:39:16;;;;;;;40.97;26.17;;;;;;;6.64;100.00;100238.66;5075199;28;20036;-75
2023/02/19 03:41:44;;;;;;;50.22;30.85;;;;;;;6.59;100.00;100253.03;5057536;28;20107;-74
2023/02/19 03:44:17;;;;;;;49.92;31.00;;;;;;;6.58;100.00;100248.81;5075992;28;20027;-74
2023/02/19 03:46:57;;;;;;;58.10;35.75;;;;;;;6.85;100.00;100246.06;5074646;28;20033;-75
2023/02/19 03:49:57;;;;;;;48.53;32.60;;;;;;;6.27;100.00;100212.00;5056895;28;20058;-75
2023/02/19 03:52:27;;;;;;;60.28;37.47;;;;;;;6.36;100.00;100169.03;5056917;28;20433;-75
2023/02/19 03:55:05;;;;;;;74.22;47.78;;;;;;;6.20;100.00;100178.41;5057229;28;20066;-75
2023/02/19 03:57:35;;;;;;;54.00;36.15;;;;;;;6.74;100.00;100246.16;5075183;28;20028;-76
2023/02/19 04:00:08;;;;;;;91.72;52.78;;;;;;;6.52;100.00;100244.63;5074382;28;20044;-75
2023/02/19 04:02:43;;;;;;;56.75;36.05;;;;;;;6.47;100.00;100228.69;5056365;28;20029;-75
2023/02/19 04:05:38;;;;;;;45.38;29.27;;;;;;;6.42;100.00;100232.94;5074300;28;20016;-74
2023/02/19 04:08:12;;;;;;;45.20;29.90;;;;;;;5.98;100.00;100238.25;5072290;28;20041;-75
2023/02/19 04:10:39;;;;;;;45.60;28.50;;;;;;;5.95;100.00;100248.38;5074224;28;20517;-75
2023/02/19 04:13:12;;;;;;;44.28;30.38;;;;;;;6.05;100.00;100239.06;5055878;28;20039;-76
2023/02/19 04:15:42;;;;;;;49.80;31.25;;;;;;;6.16;100.00;100239.03;5074381;28;20487;-75
2023/02/19 04:18:17;;;;;;;47.65;30.48;;;;;;;6.22;100.00;100227.19;5074474;28;20063;-75
2023/02/19 04:20:45;;;;;;;46.17;31.08;;;;;;;5.39;100.00;100161.22;5073920;28;20048;-74
2023/02/19 04:23:19;;;;;;;46.05;29.40;;;;;;;5.24;100.00;100159.56;5074241;28;20538;-76
2023/02/19 04:25:49;;;;;;;41.45;26.67;;;;;;;5.85;100.00;100197.97;5074479;28;20339;-76
2023/02/19 04:28:17;;;;;;;43.83;27.15;;;;;;;5.14;100.00;100168.84;5074561;28;20103;-75
2023/02/19 04:30:43;;;;;;;37.70;25.30;;;;;;;6.14;100.00;100255.00;5056546;28;20060;-72
2023/02/19 04:33:08;;;;;;;40.40;26.25;;;;;;;5.83;100.00;100215.66;5075317;28;20024;-74
2023/02/19 04:35:34;;;;;;;39.22;25.35;;;;;;;6.07;100.00;100273.56;5073184;28;20029;-74
2023/02/19 04:37:59;;;;;;;41.78;27.17;;;;;;;5.92;100.00;100273.59;5073868;28;20028;-73
2023/02/19 04:40:25;;;;;;;38.53;25.40;;;;;;;5.52;100.00;100191.38;5056174;28;20032;-74
2023/02/19 04:42:50;;;;;;;31.17;21.45;;;;;;;5.62;100.00;100202.28;5073304;28;20032;-76
2023/02/19 04:45:15;;;;;;;33.30;20.90;;;;;;;5.78;100.00;100271.97;5074515;28;20562;-76
2023/02/19 04:47:41;;;;;;;32.70;20.98;;;;;;;5.90;100.00;100274.47;5073571;28;20032;-78
2023/02/19 04:50:06;;;;;;;33.33;22.38;;;;;;;5.61;100.00;100281.25;5072343;28;20032;-75
2023/02/19 04:52:34;;;;;;;31.52;20.50;;;;;;;5.60;100.00;100214.03;5055639;28;20094;-75
2023/02/19 04:55:00;;;;;;;27.92;19.92;;;;;;;5.81;100.00;100251.78;5074150;28;20032;-74
2023/02/19 04:57:26;;;;;;;32.38;18.58;;;;;;;5.21;100.00;100215.84;5071259;28;20039;-73
2023/02/19 04:59:52;;;;;;;25.88;16.55;;;;;;;5.71;100.00;100276.19;5073753;28;20056;-73
2023/02/19 05:02:17;;;;;;;21.27;14.85;;;;;;;5.54;100.00;100246.84;5073270;28;20107;-73
2023/02/19 05:04:43;;;;;;;20.40;13.50;;;;;;;5.33;100.00;100230.09;5055702;28;20035;-74
2023/02/19 05:07:08;;;;;;;22.33;16.05;;;;;;;5.40;100.00;100266.22;5073163;28;20467;-74
2023/02/19 05:09:34;;;;;;;25.20;16.45;;;;;;;5.53;100.00;100207.34;5073329;28;20047;-72
2023/02/19 05:11:59;;;;;;;20.15;13.98;;;;;;;5.43;100.00;100273.78;5073111;28;20510;-73
2023/02/19 05:14:24;;;;;;;22.60;14.40;;;;;;;5.20;100.00;100213.34;5072998;28;20033;-74
2023/02/19 05:16:50;;;;;;;22.85;14.68;;;;;;;5.10;100.00;100216.72;5072849;28;20024;-74
2023/02/19 05:19:15;;;;;;;25.73;15.73;;;;;;;5.35;100.00;100278.81;5054995;28;20123;-73
2023/02/19 05:21:40;;;;;;;28.20;18.58;;;;;;;5.30;100.00;100230.13;5055098;28;20035;-74
2023/02/19 05:24:06;;;;;;;26.25;15.98;;;;;;;5.77;100.00;100283.75;5055486;28;20409;-75
2023/02/19 05:26:32;;;;;;;23.42;16.88;;;;;;;5.78;100.00;100246.75;5072399;28;20041;-74
2023/02/19 05:28:58;;;;;;;26.10;18.20;;;;;;;5.49;100.00;100231.72;5072654;28;20032;-74
2023/02/19 05:31:23;;;;;;;27.25;19.33;;;;;;;5.67;100.00;100296.38;5072717;28;20036;-74
2023/02/19 05:33:51;;;;;;;28.80;18.70;;;;;;;5.65;100.00;100242.59;5072342;28;20048;-74
2023/02/19 05:36:18;;;;;;;27.50;18.33;;;;;;;5.55;100.00;100256.91;5072947;28;20106;-76
2023/02/19 05:38:44;;;;;;;21.95;15.82;;;;;;;5.78;100.00;100260.22;5055162;28;20509;-74
2023/02/19 05:41:11;;;;;;;30.15;20.00;;;;;;;5.78;100.00;100319.91;5071400;28;20017;-75
2023/02/19 05:43:38;;;;;;;21.77;15.20;;;;;;;5.72;100.00;100277.03;5072788;28;20515;-75
2023/02/19 05:46:05;;;;;;;27.25;17.88;;;;;;;6.08;100.00;100319.81;5072289;28;20182;-76
2023/02/19 05:48:30;;;;;;;34.65;24.25;;;;;;;6.02;100.00;100264.34;5072117;28;20056;-74
2023/02/19 05:51:03;;;;;;;33.70;23.00;;;;;;;7.20;100.00;100324.94;5054781;28;20498;-75
2023/02/19 05:53:28;;;;;;;42.78;28.75;;;;;;;7.49;100.00;100296.84;5071438;28;20050;-74
2023/02/19 05:55:54;;;;;;;71.30;45.72;;;;;;;7.23;100.00;100281.94;5072137;28;20115;-74
2023/02/19 05:58:19;;;;;;;66.43;44.63;;;;;;;7.86;100.00;100285.47;5072375;28;20111;-73
2023/02/19 06:00:45;;;;;;;47.45;33.50;;;;;;;8.43;100.00;100349.75;5053855;28;20410;-74
2023/02/19 06:03:10;;;;;;;38.88;26.77;;;;;;;8.50;100.00;100353.84;5053489;28;20111;-76
2023/02/19 06:05:36;;;;;;;70.68;47.08;;;;;;;8.11;100.00;100304.56;5071873;28;20102;-74
2023/02/19 06:08:02;;;;;;;48.92;32.28;;;;;;;8.38;100.00;100262.84;5071689;28;20043;-75
2023/02/19 06:10:27;;;;;;;44.05;26.70;;;;;;;8.93;100.00;100306.78;5071696;28;20024;-74
2023/02/19 06:12:53;;;;;;;79.93;49.95;;;;;;;9.92;100.00;100384.53;5053972;28;20487;-74
2023/02/19 06:15:19;;;;;;;57.47;36.33;;;;;;;9.85;100.00;100344.84;5071642;28;20028;-75
2023/02/19 06:17:44;;;;;;;62.17;38.25;;;;;;;10.51;100.00;100352.84;5072300;28;20032;-74
2023/02/19 06:20:10;;;;;;;55.92;36.03;;;;;;;10.97;100.00;100340.78;5071647;28;20036;-75
2023/02/19 06:22:36;;;;;;;38.10;24.08;;;;;;;9.90;100.00;100374.41;5053823;28;20040;-74
2023/02/19 06:25:01;;;;;;;37.53;24.77;;;;;;;9.65;100.00;100365.53;5053919;28;20403;-74
2023/02/19 06:27:27;;;;;;;35.85;24.35;;;;;;;9.37;100.00;100427.78;5053700;28;20032;-74
2023/02/19 06:29:52;;;;;;;50.28;35.10;;;;;;;9.49;100.00;100407.28;5071484;28;20029;-74
2023/02/19 06:32:25;;;;;;;46.80;28.35;;;;;;;9.53;100.00;100408.91;5054117;28;20035;-74
2023/02/19 06:34:50;;;;;;;44.28;30.15;;;;;;;8.98;100.00;100325.25;5071877;28;20029;-75
2023/02/19 06:37:15;;;;;;;41.75;30.58;;;;;;;9.67;100.00;100406.97;5071953;28;20043;-76
2023/02/19 06:39:42;;;;;;;78.15;50.83;;;;;;;9.43;100.00;100359.16;5071730;28;20515;-70
2023/02/19 06:42:07;;;;;;;44.88;33.80;;;;;;;8.93;100.00;100354.94;5062884;28;20035;-78
2023/02/19 06:44:33;;;;;;;40.42;29.02;;;;;;;9.48;100.00;100408.16;5090565;28;20031;-76
2023/02/19 06:46:58;;;;;;;42.58;27.35;;;;;;;9.04;100.00;100364.91;5080184;28;20128;-76
2023/02/19 06:49:25;;;;;;;39.58;28.27;;;;;;;9.65;100.00;100407.88;5043552;28;20029;-76
2023/02/19 06:51:50;;;;;;;45.55;28.77;;;;;;;8.49;100.00;100307.44;5034387;28;20033;-77
2023/02/19 06:54:15;;;;;;;244.05;101.93;;;;;;;9.34;100.00;100393.16;5071064;28;20043;-77
2023/02/19 06:56:41;;;;;;;106.32;55.30;;;;;;;9.07;100.00;100327.63;5072080;28;20505;-77
2023/02/19 06:59:09;;;;;;;57.15;37.13;;;;;;;9.41;100.00;100376.13;5071624;28;20111;-79
2023/02/19 07:01:36;;;;;;;71.75;46.10;;;;;;;9.09;100.00;100320.03;5072161;28;20044;-78
2023/02/19 07:04:02;;;;;;;93.88;62.83;;;;;;;9.19;100.00;100346.91;5071977;28;20032;-77
2023/02/19 07:06:28;;;;;;;58.30;40.97;;;;;;;8.92;100.00;100312.69;5071670;28;20071;-77
2023/02/19 07:08:55;;;;;;;36.22;28.23;;;;;;;9.82;100.00;100324.63;5053821;28;20115;-77
2023/02/19 07:11:21;;;;;;;38.10;26.73;;;;;;;9.49;100.00;100286.31;5054180;28;20122;-77
2023/02/19 07:13:46;;;;;;;26.92;18.77;;;;;;;10.16;100.00;100335.81;5071455;28;20036;-78
2023/02/19 07:16:12;;;;;;;36.78;23.52;;;;;;;9.76;100.00;100299.34;5071830;28;20043;-77
2023/02/19 07:18:39;;;;;;;29.27;20.73;;;;;;;10.29;100.00;100340.63;5071859;28;20040;-83
2023/02/19 07:21:10;;;;;;;32.28;23.15;;;;;;;9.79;100.00;100258.66;5071839;28;20063;-79
2023/02/19 07:23:36;;;;;;;33.05;23.48;;;;;;;10.24;100.00;100317.00;5053820;28;20029;-81
2023/02/19 07:26:02;;;;;;;29.73;23.38;;;;;;;10.64;100.00;100308.47;5053340;28;20536;-80
2023/02/19 07:28:28;;;;;;;41.13;29.10;;;;;;;10.47;100.00;100319.03;5052107;28;20112;-76
2023/02/19 07:31:00;;;;;;;39.50;26.60;;;;;;;10.94;100.00;100348.47;5050684;28;20029;-78
2023/02/19 07:33:25;;;;;;;32.63;23.33;;;;;;;10.69;100.00;100317.69;5069442;28;20517;-79
2023/02/19 07:35:51;;;;;;;25.42;19.80;;;;;;;11.58;100.00;100297.63;5071203;28;20044;-81
2023/02/19 07:38:17;;;;;;;24.92;16.65;;;;;;;11.72;100.00;100310.88;5071567;28;20032;-81
2023/02/19 07:41:00;;;;;;;20.42;16.35;;;;;;;12.07;100.00;100312.41;5070881;28;20028;-81
2023/02/19 07:43:28;;;;;;;22.90;16.00;;;;;;;12.53;100.00;100322.09;5071164;28;20025;-79
2023/02/19 07:45:53;;;;;;;20.75;14.75;;;;;;;12.26;100.00;100307.63;5064375;28;20029;-76
2023/02/19 07:48:19;;;;;;;26.60;16.80;;;;;;;12.54;100.00;100342.44;5054980;28;20097;-78
2023/02/19 07:50:56;;;;;;;22.90;15.38;;;;;;;13.02;100.00;100348.59;5053705;28;20032;-78
2023/02/19 07:53:22;;;;;;;19.02;12.80;;;;;;;12.95;100.00;100330.97;5070832;28;20060;-80
2023/02/19 07:55:48;;;;;;;26.58;17.67;;;;;;;12.40;100.00;100364.16;5071088;28;20119;-71
2023/02/19 07:58:14;;;;;;;22.08;14.25;;;;;;;12.84;100.00;100328.75;5070156;28;20120;-74
2023/02/19 08:00:39;;;;;;;19.50;13.23;;;;;;;12.77;100.00;100311.13;5052167;28;20531;-68
2023/02/19 08:03:05;;;;;;;29.65;19.52;;;;;;;12.81;100.00;100340.78;5052404;28;20025;-73
2023/02/19 08:05:38;;;;;;;33.13;19.35;;;;;;;12.69;100.00;100379.41;5052684;28;20021;-76
2023/02/19 08:08:09;;;;;;;28.23;18.95;;;;;;;12.51;100.00;100385.06;5053584;28;20029;-78
2023/02/19 08:13:19;;;;;;;29.55;21.42;;;;;;;12.03;100.00;100377.09;5073782;28;20047;-79
2023/02/19 08:15:46;;;;;;;17.90;14.90;;;;;;;12.66;100.00;100387.97;5075201;28;20036;-81
2023/02/19 08:18:12;;;;;;;17.35;12.20;;;;;;;12.94;100.00;100345.44;5056505;28;20064;-75
2023/02/19 08:20:38;;;;;;;18.23;12.50;;;;;;;12.31;100.00;100382.25;5056676;28;20081;-72
2023/02/19 08:23:04;;;;;;;17.63;11.77;;;;;;;12.91;100.00;100376.13;5057274;28;20119;-83
2023/02/19 08:25:29;;;;;;;16.52;11.93;;;;;;;13.00;100.00;100380.97;5074452;28;20403;-81
2023/02/19 08:27:55;;;;;;;17.73;12.70;;;;;;;12.88;100.00;100319.28;5074400;28;20024;-81
2023/02/19 08:30:21;;;;;;;19.55;11.55;;;;;;;12.39;100.00;100344.63;5056549;28;21048;-76
2023/02/19 08:32:46;;;;;;;16.55;11.63;;;;;;;13.38;100.00;100376.38;5074814;28;20037;-75
2023/02/19 08:35:11;;;;;;;13.57;10.57;;;;;;;12.91;100.00;100390.63;5055449;28;20040;-74
2023/02/19 08:37:37;;;;;;;15.88;11.40;;;;;;;13.37;100.00;100332.13;5076303;28;20093;-76
2023/02/19 08:40:03;;;;;;;13.52;11.43;;;;;;;13.36;100.00;100375.59;5075353;28;20036;-82
2023/02/19 08:42:28;;;;;;;17.65;11.07;;;;;;;12.85;100.00;100294.72;5053313;28;20541;-78
2023/02/19 08:44:54;;;;;;;16.92;11.90;;;;;;;13.13;100.00;100366.16;5039102;28;20044;-76
2023/02/19 08:47:19;;;;;;;15.38;11.88;;;;;;;12.96;100.00;100325.81;5073322;28;20043;-78
2023/02/19 08:49:45;;;;;;;19.67;12.40;;;;;;;13.19;100.00;100365.13;5073715;28;20036;-76
2023/02/19 08:52:10;;;;;;;16.40;12.00;;;;;;;13.04;100.00;100376.63;5055604;28;20514;-77
2023/02/19 08:54:36;;;;;;;16.00;11.32;;;;;;;13.48;100.00;100376.03;5051709;28;20460;-74
2023/02/19 08:57:04;;;;;;;15.60;11.40;;;;;;;14.06;100.00;100354.41;5035965;28;20025;-79
2023/02/19 08:59:30;;;;;;;16.17;11.02;;;;;;;14.19;100.00;100378.63;5053572;28;20028;-74
2023/02/19 09:01:57;;;;;;;23.50;16.40;;;;;;;13.65;100.00;100324.34;5053611;28;20033;-74
2023/02/19 09:04:22;;;;;;;23.88;16.50;;;;;;;13.92;100.00;100278.19;5053152;28;20052;-76
2023/02/19 09:06:49;;;;;;;17.00;12.45;;;;;;;14.63;100.00;100344.59;5052820;28;20067;-71
2023/02/19 09:09:15;;;;;;;24.67;19.45;;;;;;;14.25;100.00;100355.41;5033442;28;20108;-71
2023/02/19 09:11:40;;;;;;;20.45;14.95;;;;;;;14.75;100.00;100353.53;5034357;28;20129;-72
2023/02/19 09:14:06;;;;;;;15.10;11.60;;;;;;;14.57;100.00;100355.06;5034164;28;20128;-71
2023/02/19 09:16:36;;;;;;;15.40;10.02;;;;;;;15.03;100.00;100290.09;5034256;28;20036;-73
2023/02/19 09:19:03;;;;;;;16.27;12.23;;;;;;;15.09;100.00;100306.91;5052545;28;20021;-76
2023/02/19 09:21:28;;;;;;;39.60;30.35;;;;;;;15.19;100.00;100347.44;5052756;28;20033;-74
2023/02/19 09:23:54;;;;;;;15.65;11.32;;;;;;;15.54;100.00;100349.41;5034564;28;20044;-73
2023/02/19 09:26:19;;;;;;;15.50;11.10;;;;;;;14.98;100.00;100302.22;5051922;28;20028;-73
2023/02/19 09:28:45;;;;;;;12.55;10.07;;;;;;;14.80;100.00;100297.03;5031565;28;20035;-71
2023/02/19 09:31:13;;;;;;;12.40;9.73;;;;;;;14.97;100.00;100340.69;5032213;28;20033;-71
2023/02/19 09:33:46;;;;;;;16.33;10.48;;;;;;;15.15;100.00;100294.66;5046018;28;20538;-73
2023/02/19 09:36:12;;;;;;;18.80;12.85;;;;;;;15.64;100.00;100355.00;5034421;28;20051;-75
2023/02/19 09:38:39;;;;;;;17.33;10.18;;;;;;;15.39;100.00;100352.56;5034707;28;20064;-77
2023/02/19 09:41:15;;;;;;;14.57;10.13;;;;;;;15.96;100.00;100358.72;5035214;28;20515;-83
2023/02/19 09:43:42;;;;;;;16.13;11.55;;;;;;;16.10;100.00;100299.94;5052757;28;20120;-81
2023/02/19 09:46:23;;;;;;;13.77;11.50;;;;;;;16.68;100.00;100334.06;5052769;28;20040;-77
2023/02/19 09:48:49;;;;;;;17.55;11.85;;;;;;;16.42;100.00;100341.19;5049215;28;20516;-80
2023/02/19 09:51:15;;;;;;;14.77;10.80;;;;;;;16.78;100.00;100333.53;5034226;28;20040;-79
2023/02/19 09:53:44;;;;;;;18.25;10.20;;;;;;;16.69;100.00;100294.63;5034447;28;20028;-80
2023/02/19 09:56:09;;;;;;;15.27;10.95;;;;;;;16.97;100.00;100280.38;5052434;28;20044;-81
2023/02/19 09:58:45;;;;;;;14.63;10.40;;;;;;;16.56;100.00;100321.81;5052780;28;20029;-80
2023/02/19 10:01:11;;;;;;;16.98;10.90;;;;;;;16.78;100.00;100273.63;5066586;28;20056;-81
2023/02/19 10:03:40;;;;;;;15.65;10.45;;;;;;;17.39;100.00;100290.22;5055149;28;20095;-80
2023/02/19 10:06:28;;;;;;;16.13;11.35;;;;;;;18.02;100.00;100296.38;5072789;28;20036;-79
2023/02/19 10:09:24;;;;;;;16.33;11.00;;;;;;;18.13;100.00;100297.47;5073262;28;20117;-78
2023/02/19 10:11:51;;;;;;;15.13;10.27;;;;;;;18.74;100.00;100294.94;5052918;28;20037;-80
2023/02/19 10:14:34;;;;;;;12.35;9.32;;;;;;;18.40;100.00;100292.56;5072432;28;20036;-78
2023/02/19 10:17:03;;;;;;;14.20;8.90;;;;;;;18.62;100.00;100230.44;5069511;28;20028;-80
2023/02/19 10:19:28;;;;;;;13.88;7.90;;;;;;;18.00;100.00;100227.00;5054020;28;20032;-80
2023/02/19 10:21:55;;;;;;;13.05;8.48;;;;;;;18.60;100.00;100276.88;5054026;28;20479;-76
2023/02/19 10:24:25;;;;;;;8.93;7.57;;;;;;;18.64;100.00;100273.19;5072239;28;20098;-82
2023/02/19 10:26:51;;;;;;;14.95;7.90;;;;;;;19.18;100.00;100263.22;5054423;28;20097;-81
2023/02/19 10:29:18;;;;;;;10.85;7.57;;;;;;;19.26;100.00;100259.28;5072267;28;20032;-82
2023/02/19 10:31:44;;;;;;;8.07;6.47;;;;;;;18.78;97.64;100192.53;5065148;28;20021;-80
2023/02/19 10:34:21;;;;;;;9.18;6.60;;;;;;;19.26;96.72;100183.66;5033509;28;20577;-79
2023/02/19 10:36:52;;;;;;;11.82;6.93;;;;;;;19.70;93.66;100169.75;5054806;28;20419;-80
2023/02/19 10:39:20;;;;;;;10.93;7.30;;;;;;;19.89;92.54;100214.13;5034160;28;20415;-77
2023/02/19 10:41:48;;;;;;;10.38;6.68;;;;;;;20.03;88.22;100171.94;5031887;28;20052;-77
2023/02/19 10:44:24;;;;;;;16.45;6.95;;;;;;;20.30;89.33;100218.47;5014292;28;20036;-81
2023/02/19 10:46:54;;;;;;;9.98;6.50;;;;;;;20.08;88.27;100216.38;5030598;28;20026;-79
2023/02/19 10:49:26;;;;;;;9.18;6.38;;;;;;;19.95;88.01;100204.34;5020527;28;20063;-79
2023/02/19 10:51:54;;;;;;;10.65;7.30;;;;;;;20.73;84.84;100192.31;5034393;28;20032;-82
2023/02/19 10:54:24;;;;;;;7.20;5.95;;;;;;;20.64;82.86;100190.31;5033962;28;20377;-80
2023/02/19 10:56:49;;;;;;;11.85;6.10;;;;;;;20.47;79.51;100128.63;5034476;28;20057;-81
2023/02/19 10:59:15;;;;;;;9.75;6.88;;;;;;;20.95;80.38;100176.19;5056275;28;20475;-78
2023/02/19 11:01:57;;;;;;;9.70;6.53;;;;;;;21.10;81.83;100192.44;5068048;28;20057;-79
2023/02/19 11:04:23;;;;;;;4.95;2.90;;;;;;;20.83;69.68;100163.25;5057028;28;20081;-76
2023/02/19 11:06:49;;;;;;;3.28;1.60;;;;;;;21.66;61.09;100160.91;5074409;28;20089;-80
2023/02/19 11:09:32;;;;;;;3.25;1.60;;;;;;;21.68;63.32;100156.44;5079274;28;20032;-80
2023/02/19 11:11:58;;;;;;;9.52;3.80;;;;;;;21.33;63.63;100108.94;5071489;28;20028;-76
2023/02/19 11:14:26;;;;;;;5.00;2.03;;;;;;;21.35;60.50;100153.66;5071947;28;20036;-80
2023/02/19 11:16:55;;;;;;;2.72;2.03;;;;;;;21.89;58.39;100156.72;5053890;28;20040;-77
2023/02/19 11:19:22;;;;;;;4.68;3.13;;;;;;;21.66;54.64;100158.31;5071975;28;20059;-79
2023/02/19 11:21:49;;;;;;;6.57;2.70;;;;;;;22.27;52.61;100153.00;5053453;28;20047;-78
2023/02/19 11:24:29;;;;;;;12.10;3.97;;;;;;;21.80;54.06;100096.03;5054021;28;20060;-77
2023/02/19 11:26:56;;;;;;;7.07;2.50;;;;;;;21.98;51.76;100104.25;5052961;28;20061;-74
2023/02/19 11:29:24;;;;;;;7.20;1.80;;;;;;;21.75;50.36;100098.13;5071230;28;20032;-74
2023/02/19 11:31:50;;;;;;;8.73;1.80;;;;;;;21.88;50.62;100109.28;5071214;28;20028;-70
2023/02/19 11:34:30;;;;;;;10.48;2.53;;;;;;;21.61;52.78;100147.44;5070057;28;20024;-69
2023/02/19 11:37:09;;;;;;;12.73;2.28;;;;;;;22.02;52.42;100158.31;5070799;28;20568;-71
2023/02/19 11:39:36;;;;;;;4.97;1.60;;;;;;;21.44;54.96;100101.25;5070035;28;20135;-71
2023/02/19 11:42:11;;;;;;;2.42;0.90;;;;;;;21.14;53.13;100099.03;5069955;28;20020;-76
2023/02/19 11:45:14;;;;;;;3.72;1.30;;;;;;;21.27;53.27;100151.56;5069019;28;20028;-71